AUA52U LOWW-LIML
Flight info
| Callsign | AUA52U |
|---|---|
| Flight time | 0h 53m |
| Altitude | 34000 |
| Route | OSPEN DCT ABRUK DCT SETAL DCT DETSA/N0413F330 DCT BAKOR DCT RENTA DCT ATPED DCT LUSIL |
| Aircraft | A320/M-SDE3FGHIRWY/LB1 |
Departure
| Time | 2026-04-24 08:09 |
|---|---|
| Airport | Vienna International Airport (LOWW) |
Arrival
| Time | 2026-04-24 09:03 |
|---|---|
| Airport | Milano Linate Airport (LIML) |
| Time | Latitude | Longitude | Altitude | Speed | Heading |
|---|---|---|---|---|---|
| 2026-04-24 07:55 | 48.11424 | 16.57128 | 610 ft | 0 kts | 206° |
| 2026-04-24 08:06 | 48.11423 | 16.57127 | 610 ft | 0 kts | 206° |
| 2026-04-24 08:07 | 48.11400 | 16.57111 | 622 ft | 9 kts | 205° |
| 2026-04-24 08:07 | 48.11344 | 16.57071 | 614 ft | 9 kts | 204° |
| 2026-04-24 08:07 | 48.11292 | 16.57056 | 610 ft | 7 kts | 153° |
| 2026-04-24 08:07 | 48.11259 | 16.57130 | 614 ft | 10 kts | 118° |
| 2026-04-24 08:08 | 48.11227 | 16.57213 | 621 ft | 9 kts | 128° |
| 2026-04-24 08:08 | 48.11171 | 16.57227 | 610 ft | 10 kts | 201° |
| 2026-04-24 08:08 | 48.11086 | 16.57166 | 610 ft | 14 kts | 207° |
| 2026-04-24 08:09 | 48.11193 | 16.56678 | 615 ft | 80 kts | 296° |
| 2026-04-24 08:09 | 48.11537 | 16.55625 | 623 ft | 142 kts | 296° |
| 2026-04-24 08:09 | 48.12008 | 16.54168 | 1069 ft | 155 kts | 299° |
| 2026-04-24 08:09 | 48.12177 | 16.52577 | 1836 ft | 169 kts | 258° |
| 2026-04-24 08:10 | 48.11428 | 16.51038 | 2258 ft | 203 kts | 224° |
| 2026-04-24 08:10 | 48.10241 | 16.49687 | 2820 ft | 223 kts | 220° |
| 2026-04-24 08:10 | 48.08916 | 16.48311 | 3468 ft | 242 kts | 219° |
| 2026-04-24 08:10 | 48.07480 | 16.46777 | 4102 ft | 262 kts | 222° |
| 2026-04-24 08:11 | 48.06042 | 16.45048 | 5074 ft | 268 kts | 225° |
| 2026-04-24 08:11 | 48.04631 | 16.43258 | 6073 ft | 271 kts | 226° |
| 2026-04-24 08:11 | 48.03224 | 16.41362 | 7020 ft | 273 kts | 233° |
| 2026-04-24 08:11 | 48.02205 | 16.38956 | 7678 ft | 282 kts | 251° |
| 2026-04-24 08:12 | 48.01419 | 16.36138 | 8112 ft | 306 kts | 252° |
| 2026-04-24 08:12 | 48.00600 | 16.33071 | 8485 ft | 330 kts | 252° |
| 2026-04-24 08:12 | 47.99724 | 16.29767 | 8815 ft | 353 kts | 252° |
| 2026-04-24 08:12 | 47.98797 | 16.26305 | 9434 ft | 364 kts | 252° |
| 2026-04-24 08:13 | 47.97833 | 16.22754 | 10146 ft | 372 kts | 251° |
| 2026-04-24 08:13 | 47.96842 | 16.19145 | 10825 ft | 379 kts | 251° |
| 2026-04-24 08:13 | 47.95830 | 16.15488 | 11534 ft | 384 kts | 251° |
| 2026-04-24 08:13 | 47.94803 | 16.11785 | 12252 ft | 389 kts | 251° |
| 2026-04-24 08:14 | 47.93762 | 16.08034 | 12975 ft | 394 kts | 251° |
| 2026-04-24 08:14 | 47.92703 | 16.04227 | 13678 ft | 399 kts | 250° |
| 2026-04-24 08:14 | 47.91633 | 16.00376 | 14297 ft | 405 kts | 251° |
| 2026-04-24 08:14 | 47.90554 | 15.96478 | 14922 ft | 408 kts | 251° |
| 2026-04-24 08:15 | 47.89462 | 15.92522 | 15523 ft | 413 kts | 251° |
| 2026-04-24 08:15 | 47.88361 | 15.88544 | 16119 ft | 418 kts | 251° |
| 2026-04-24 08:15 | 47.87244 | 15.84525 | 16728 ft | 422 kts | 251° |
| 2026-04-24 08:15 | 47.86109 | 15.80459 | 17310 ft | 428 kts | 250° |
| 2026-04-24 08:16 | 47.84957 | 15.76350 | 17891 ft | 432 kts | 251° |
| 2026-04-24 08:16 | 47.83805 | 15.72245 | 18436 ft | 437 kts | 250° |
| 2026-04-24 08:16 | 47.82626 | 15.68054 | 18925 ft | 441 kts | 250° |
| 2026-04-24 08:16 | 47.81434 | 15.63819 | 19400 ft | 446 kts | 250° |
| 2026-04-24 08:17 | 47.80230 | 15.59545 | 19874 ft | 450 kts | 250° |
| 2026-04-24 08:17 | 47.79012 | 15.55226 | 20327 ft | 454 kts | 250° |
| 2026-04-24 08:17 | 47.77786 | 15.50880 | 20778 ft | 457 kts | 250° |
| 2026-04-24 08:17 | 47.76551 | 15.46512 | 21220 ft | 460 kts | 250° |
| 2026-04-24 08:18 | 47.75305 | 15.42116 | 21693 ft | 463 kts | 250° |
| 2026-04-24 08:18 | 47.74050 | 15.37694 | 22106 ft | 466 kts | 249° |
| 2026-04-24 08:18 | 47.72783 | 15.33243 | 22507 ft | 468 kts | 249° |
| 2026-04-24 08:18 | 47.71511 | 15.28780 | 22898 ft | 471 kts | 249° |
| 2026-04-24 08:19 | 47.70228 | 15.24287 | 23289 ft | 474 kts | 249° |
| 2026-04-24 08:19 | 47.68936 | 15.19771 | 23678 ft | 477 kts | 249° |
| 2026-04-24 08:19 | 47.67630 | 15.15221 | 23989 ft | 479 kts | 249° |
| 2026-04-24 08:19 | 47.66320 | 15.10668 | 24311 ft | 482 kts | 249° |
| 2026-04-24 08:20 | 47.64998 | 15.06080 | 24620 ft | 484 kts | 249° |
| 2026-04-24 08:20 | 47.63671 | 15.01480 | 24929 ft | 486 kts | 249° |
| 2026-04-24 08:20 | 47.62337 | 14.96860 | 25234 ft | 488 kts | 249° |
| 2026-04-24 08:20 | 47.61018 | 14.92298 | 25531 ft | 489 kts | 249° |
| 2026-04-24 08:21 | 47.59673 | 14.87661 | 25826 ft | 490 kts | 249° |
| 2026-04-24 08:21 | 47.58325 | 14.83014 | 26094 ft | 491 kts | 249° |
| 2026-04-24 08:21 | 47.56971 | 14.78361 | 26357 ft | 492 kts | 249° |
| 2026-04-24 08:21 | 47.55611 | 14.73699 | 26596 ft | 494 kts | 249° |
| 2026-04-24 08:22 | 47.54708 | 14.70609 | 26724 ft | 494 kts | 249° |
| 2026-04-24 08:22 | 47.53340 | 14.65933 | 26931 ft | 497 kts | 249° |
| 2026-04-24 08:22 | 47.51962 | 14.61232 | 27111 ft | 498 kts | 249° |
| 2026-04-24 08:22 | 47.50580 | 14.56522 | 27301 ft | 499 kts | 249° |
| 2026-04-24 08:23 | 47.49194 | 14.51816 | 27527 ft | 499 kts | 249° |
| 2026-04-24 08:23 | 47.47808 | 14.47119 | 27781 ft | 498 kts | 249° |
| 2026-04-24 08:23 | 47.46420 | 14.42427 | 28046 ft | 498 kts | 249° |
| 2026-04-24 08:23 | 47.45031 | 14.37740 | 28307 ft | 498 kts | 249° |
| 2026-04-24 08:24 | 47.43638 | 14.33051 | 28576 ft | 497 kts | 249° |
| 2026-04-24 08:24 | 47.42249 | 14.28380 | 28818 ft | 497 kts | 249° |
| 2026-04-24 08:24 | 47.40858 | 14.23705 | 29066 ft | 498 kts | 249° |
| 2026-04-24 08:24 | 47.39464 | 14.19024 | 29334 ft | 497 kts | 249° |
| 2026-04-24 08:25 | 47.38069 | 14.14351 | 29602 ft | 497 kts | 249° |
| 2026-04-24 08:25 | 47.36675 | 14.09687 | 29877 ft | 497 kts | 249° |
| 2026-04-24 08:25 | 47.35279 | 14.05023 | 30162 ft | 497 kts | 249° |
| 2026-04-24 08:25 | 47.33881 | 14.00356 | 30392 ft | 498 kts | 249° |
| 2026-04-24 08:26 | 47.32480 | 13.95699 | 30683 ft | 496 kts | 249° |
| 2026-04-24 08:26 | 47.31074 | 13.91051 | 30916 ft | 496 kts | 249° |
| 2026-04-24 08:26 | 47.29664 | 13.86400 | 31099 ft | 497 kts | 249° |
| 2026-04-24 08:26 | 47.28257 | 13.81757 | 31298 ft | 497 kts | 249° |
| 2026-04-24 08:27 | 47.26846 | 13.77112 | 31535 ft | 496 kts | 249° |
| 2026-04-24 08:27 | 47.25454 | 13.72525 | 31772 ft | 496 kts | 249° |
| 2026-04-24 08:27 | 47.24044 | 13.67893 | 31992 ft | 496 kts | 249° |
| 2026-04-24 08:27 | 47.22632 | 13.63265 | 32228 ft | 495 kts | 248° |
| 2026-04-24 08:28 | 47.21220 | 13.58641 | 32479 ft | 495 kts | 248° |
| 2026-04-24 08:28 | 47.19810 | 13.54022 | 32699 ft | 495 kts | 248° |
| 2026-04-24 08:28 | 47.18399 | 13.49408 | 32968 ft | 494 kts | 248° |
| 2026-04-24 08:28 | 47.16987 | 13.44808 | 33164 ft | 494 kts | 248° |
| 2026-04-24 08:29 | 47.15568 | 13.40209 | 33406 ft | 494 kts | 248° |
| 2026-04-24 08:29 | 47.14150 | 13.35614 | 33636 ft | 494 kts | 248° |
| 2026-04-24 08:29 | 47.12731 | 13.31020 | 33891 ft | 493 kts | 248° |
| 2026-04-24 08:29 | 47.11314 | 13.26438 | 34110 ft | 493 kts | 248° |
| 2026-04-24 08:30 | 47.09892 | 13.21851 | 34177 ft | 493 kts | 248° |
| 2026-04-24 08:30 | 47.07051 | 13.12716 | 34171 ft | 492 kts | 248° |
| 2026-04-24 08:31 | 47.04203 | 13.03583 | 34171 ft | 492 kts | 248° |
| 2026-04-24 08:31 | 47.01352 | 12.94483 | 34160 ft | 492 kts | 247° |
| 2026-04-24 08:32 | 46.98486 | 12.85376 | 34164 ft | 492 kts | 247° |
| 2026-04-24 08:32 | 46.95626 | 12.76332 | 34158 ft | 492 kts | 247° |
| 2026-04-24 08:33 | 46.92984 | 12.67973 | 34158 ft | 492 kts | 247° |
| 2026-04-24 08:33 | 46.92117 | 12.65222 | 34158 ft | 492 kts | 247° |
| 2026-04-24 08:34 | 46.89234 | 12.56134 | 34182 ft | 493 kts | 247° |
| 2026-04-24 08:34 | 46.86335 | 12.47053 | 34202 ft | 493 kts | 247° |
| 2026-04-24 08:35 | 46.83427 | 12.37968 | 34214 ft | 493 kts | 246° |
| 2026-04-24 08:35 | 46.80514 | 12.28909 | 34230 ft | 493 kts | 246° |
| 2026-04-24 08:36 | 46.77500 | 12.19923 | 34226 ft | 493 kts | 244° |
| 2026-04-24 08:36 | 46.74371 | 12.11088 | 34227 ft | 493 kts | 244° |
| 2026-04-24 08:37 | 46.72703 | 12.06417 | 34222 ft | 492 kts | 244° |
| 2026-04-24 08:37 | 46.69565 | 11.97544 | 34213 ft | 492 kts | 244° |
| 2026-04-24 08:38 | 46.66453 | 11.88655 | 34196 ft | 492 kts | 244° |
| 2026-04-24 08:38 | 46.63345 | 11.79780 | 34185 ft | 492 kts | 244° |
| 2026-04-24 08:39 | 46.60218 | 11.70927 | 34178 ft | 492 kts | 244° |
| 2026-04-24 08:39 | 46.57127 | 11.62079 | 34189 ft | 491 kts | 244° |
| 2026-04-24 08:40 | 46.54069 | 11.53210 | 34196 ft | 490 kts | 244° |
| 2026-04-24 08:40 | 46.51010 | 11.44359 | 34204 ft | 490 kts | 244° |
| 2026-04-24 08:41 | 46.47935 | 11.35538 | 34196 ft | 489 kts | 243° |
| 2026-04-24 08:41 | 46.44843 | 11.26752 | 34190 ft | 488 kts | 244° |
| 2026-04-24 08:42 | 46.41763 | 11.17984 | 34187 ft | 488 kts | 244° |
| 2026-04-24 08:42 | 46.38695 | 11.09284 | 33604 ft | 488 kts | 243° |
| 2026-04-24 08:42 | 46.37144 | 11.04900 | 33062 ft | 489 kts | 244° |
| 2026-04-24 08:43 | 46.35589 | 11.00516 | 32487 ft | 490 kts | 244° |
| 2026-04-24 08:43 | 46.34031 | 10.96118 | 31922 ft | 491 kts | 243° |
| 2026-04-24 08:43 | 46.32469 | 10.91718 | 31367 ft | 493 kts | 243° |
| 2026-04-24 08:43 | 46.30896 | 10.87305 | 30818 ft | 495 kts | 243° |
| 2026-04-24 08:44 | 46.29319 | 10.82870 | 30286 ft | 496 kts | 244° |
| 2026-04-24 08:44 | 46.27758 | 10.78412 | 29664 ft | 498 kts | 244° |
| 2026-04-24 08:44 | 46.26208 | 10.73930 | 29059 ft | 499 kts | 244° |
| 2026-04-24 08:44 | 46.24662 | 10.69438 | 28448 ft | 501 kts | 244° |
| 2026-04-24 08:45 | 46.23100 | 10.64924 | 27864 ft | 502 kts | 244° |
| 2026-04-24 08:45 | 46.21528 | 10.60410 | 27283 ft | 503 kts | 244° |
| 2026-04-24 08:45 | 46.19946 | 10.55889 | 26717 ft | 505 kts | 244° |
| 2026-04-24 08:45 | 46.18358 | 10.51366 | 26166 ft | 506 kts | 244° |
| 2026-04-24 08:46 | 46.16763 | 10.46833 | 25624 ft | 507 kts | 244° |
| 2026-04-24 08:46 | 46.15163 | 10.42293 | 25096 ft | 508 kts | 244° |
| 2026-04-24 08:46 | 46.13562 | 10.37743 | 24569 ft | 510 kts | 243° |
| 2026-04-24 08:46 | 46.11958 | 10.33197 | 24053 ft | 508 kts | 243° |
| 2026-04-24 08:47 | 46.10353 | 10.28662 | 23509 ft | 505 kts | 243° |
| 2026-04-24 08:47 | 46.08785 | 10.24242 | 22912 ft | 495 kts | 243° |
| 2026-04-24 08:47 | 46.07218 | 10.19837 | 22323 ft | 481 kts | 243° |
| 2026-04-24 08:47 | 46.05586 | 10.15766 | 21758 ft | 470 kts | 235° |
| 2026-04-24 08:48 | 46.03527 | 10.12102 | 21189 ft | 460 kts | 225° |
| 2026-04-24 08:48 | 46.01210 | 10.09086 | 20646 ft | 451 kts | 216° |
| 2026-04-24 08:48 | 45.98630 | 10.06603 | 20091 ft | 443 kts | 210° |
| 2026-04-24 08:48 | 45.96023 | 10.04298 | 19571 ft | 437 kts | 210° |
| 2026-04-24 08:49 | 45.93452 | 10.02019 | 19061 ft | 431 kts | 210° |
| 2026-04-24 08:49 | 45.90912 | 9.99766 | 18592 ft | 426 kts | 210° |
| 2026-04-24 08:49 | 45.88401 | 9.97542 | 18082 ft | 421 kts | 210° |
| 2026-04-24 08:49 | 45.85928 | 9.95355 | 17554 ft | 416 kts | 210° |
| 2026-04-24 08:50 | 45.83473 | 9.93188 | 17038 ft | 411 kts | 210° |
| 2026-04-24 08:50 | 45.81051 | 9.91052 | 16535 ft | 406 kts | 211° |
| 2026-04-24 08:50 | 45.78674 | 9.88959 | 16271 ft | 395 kts | 211° |
| 2026-04-24 08:50 | 45.76357 | 9.86916 | 16019 ft | 384 kts | 211° |
| 2026-04-24 08:51 | 45.74115 | 9.84936 | 15769 ft | 374 kts | 211° |
| 2026-04-24 08:51 | 45.71920 | 9.82994 | 15431 ft | 368 kts | 211° |
| 2026-04-24 08:51 | 45.69781 | 9.81111 | 15059 ft | 364 kts | 211° |
| 2026-04-24 08:51 | 45.67630 | 9.79221 | 14637 ft | 362 kts | 211° |
| 2026-04-24 08:52 | 45.65495 | 9.77351 | 14229 ft | 359 kts | 212° |
| 2026-04-24 08:52 | 45.63393 | 9.75442 | 13810 ft | 356 kts | 214° |
| 2026-04-24 08:52 | 45.61356 | 9.73458 | 13359 ft | 353 kts | 216° |
| 2026-04-24 08:52 | 45.59360 | 9.71443 | 12933 ft | 349 kts | 216° |
| 2026-04-24 08:53 | 45.57390 | 9.69430 | 12496 ft | 346 kts | 216° |
| 2026-04-24 08:53 | 45.55439 | 9.67444 | 12065 ft | 343 kts | 216° |
| 2026-04-24 08:53 | 45.53508 | 9.65493 | 11636 ft | 334 kts | 216° |
| 2026-04-24 08:53 | 45.51647 | 9.63634 | 11222 ft | 319 kts | 216° |
| 2026-04-24 08:54 | 45.49860 | 9.61862 | 10808 ft | 307 kts | 216° |
| 2026-04-24 08:54 | 45.48119 | 9.60136 | 10534 ft | 302 kts | 216° |
| 2026-04-24 08:54 | 45.46410 | 9.58446 | 10292 ft | 296 kts | 217° |
| 2026-04-24 08:54 | 45.44743 | 9.56800 | 9980 ft | 294 kts | 217° |
| 2026-04-24 08:55 | 45.43048 | 9.55122 | 9618 ft | 292 kts | 217° |
| 2026-04-24 08:55 | 45.41409 | 9.53502 | 9264 ft | 289 kts | 217° |
| 2026-04-24 08:55 | 45.39760 | 9.51875 | 8913 ft | 287 kts | 217° |
| 2026-04-24 08:55 | 45.38135 | 9.50272 | 8299 ft | 282 kts | 217° |
| 2026-04-24 08:56 | 45.36530 | 9.48690 | 7637 ft | 279 kts | 217° |
| 2026-04-24 08:56 | 45.34948 | 9.47130 | 6976 ft | 276 kts | 217° |
| 2026-04-24 08:56 | 45.33388 | 9.45597 | 6453 ft | 268 kts | 217° |
| 2026-04-24 08:56 | 45.31871 | 9.44106 | 5932 ft | 262 kts | 217° |
| 2026-04-24 08:57 | 45.30396 | 9.42648 | 5421 ft | 255 kts | 217° |
| 2026-04-24 08:57 | 45.28964 | 9.41218 | 5029 ft | 246 kts | 216° |
| 2026-04-24 08:57 | 45.27593 | 9.39835 | 4643 ft | 238 kts | 217° |
| 2026-04-24 08:57 | 45.26296 | 9.38382 | 4350 ft | 237 kts | 229° |
| 2026-04-24 08:58 | 45.25587 | 9.36337 | 4094 ft | 231 kts | 258° |
| 2026-04-24 08:58 | 45.25384 | 9.34100 | 3851 ft | 227 kts | 273° |
| 2026-04-24 08:58 | 45.25798 | 9.31964 | 3683 ft | 225 kts | 296° |
| 2026-04-24 08:58 | 45.26815 | 9.30321 | 3525 ft | 222 kts | 323° |
| 2026-04-24 08:59 | 45.28192 | 9.29482 | 3296 ft | 212 kts | 350° |
| 2026-04-24 08:59 | 45.29649 | 9.29289 | 3033 ft | 209 kts | 355° |
| 2026-04-24 08:59 | 45.31092 | 9.29146 | 2762 ft | 208 kts | 355° |
| 2026-04-24 08:59 | 45.32492 | 9.28999 | 2523 ft | 199 kts | 354° |
| 2026-04-24 09:00 | 45.33851 | 9.28854 | 2226 ft | 192 kts | 355° |
| 2026-04-24 09:00 | 45.35160 | 9.28713 | 1976 ft | 184 kts | 355° |
| 2026-04-24 09:00 | 45.36393 | 9.28580 | 1729 ft | 172 kts | 355° |
| 2026-04-24 09:00 | 45.37539 | 9.28458 | 1525 ft | 159 kts | 355° |
| 2026-04-24 09:01 | 45.38623 | 9.28341 | 1272 ft | 154 kts | 356° |
| 2026-04-24 09:01 | 45.39678 | 9.28230 | 1084 ft | 149 kts | 356° |
| 2026-04-24 09:01 | 45.40698 | 9.28120 | 907 ft | 146 kts | 356° |
| 2026-04-24 09:01 | 45.41711 | 9.28004 | 747 ft | 146 kts | 354° |
| 2026-04-24 09:02 | 45.42733 | 9.27899 | 553 ft | 148 kts | 355° |
| 2026-04-24 09:02 | 45.43750 | 9.27791 | 374 ft | 144 kts | 355° |
| 2026-04-24 09:02 | 45.44642 | 9.27693 | 365 ft | 108 kts | 355° |
| 2026-04-24 09:02 | 45.45217 | 9.27633 | 357 ft | 58 kts | 355° |
| 2026-04-24 09:03 | 45.45418 | 9.27718 | 361 ft | 9 kts | 63° |
| 2026-04-24 09:03 | 45.45444 | 9.27771 | 362 ft | 6 kts | 52° |
| 2026-04-24 09:03 | 45.45458 | 9.27818 | 362 ft | 5 kts | 73° |
| 2026-04-24 09:03 | 45.45459 | 9.27862 | 360 ft | 4 kts | 91° |
| 2026-04-24 09:04 | 45.45459 | 9.27906 | 360 ft | 5 kts | 91° |
| 2026-04-24 09:04 | 45.45467 | 9.27969 | 366 ft | 7 kts | 45° |
| 2026-04-24 09:04 | 45.45521 | 9.27976 | 364 ft | 7 kts | 356° |
| 2026-04-24 09:04 | 45.45541 | 9.27923 | 361 ft | 6 kts | 273° |
| 2026-04-24 09:05 | 45.45541 | 9.27885 | 361 ft | 5 kts | 270° |
| 2026-04-24 09:05 | 45.45541 | 9.27878 | 361 ft | 0 kts | 270° |